This is the latest recevied weather packets stored in our database for station/object NN5DX-12. If no packets are shown the sender has not sent any weather packets the latest 10 day(s).
| Time | Temp. | Humidity | Pressure | Rain* | Wind** | Luminosity | Snow |
|---|---|---|---|---|---|---|---|
| 1778143217 | -3.89° C | 86% | 1021.2 hPa | 0 mm | - | - | - |
| 1778142917 | -3.89° C | 86% | 1021.2 hPa | 0 mm | - | - | - |
| 1778142617 | -3.89° C | 85% | 1021.1 hPa | 0 mm | - | - | - |
| 1778142317 | -3.89° C | 84% | 1021.1 hPa | 0 mm | - | - | - |
| 1778142017 | -3.33° C | 84% | 1021.3 hPa | 0 mm | - | - | - |
| 1778141717 | -3.33° C | 83% | 1021.4 hPa | 0 mm | - | - | - |
| 1778141417 | -3.33° C | 82% | 1021.3 hPa | 0 mm | - | - | - |
| 1778141117 | -2.78° C | 78% | 1021.3 hPa | 0 mm | - | - | - |
| 1778140816 | -2.78° C | 77% | 1021.5 hPa | 0 mm | - | - | - |
| 1778140516 | -2.22° C | 75% | 1022 hPa | 0 mm | - | - | - |
| 1778140217 | -1.67° C | 72% | 1021.8 hPa | 0 mm | - | - | - |
| 1778139917 | -1.11° C | 66% | 1022.4 hPa | 0 mm | - | - | - |
| 1778139617 | -1.67° C | 66% | 1021.8 hPa | 0 mm | - | - | - |
| 1778139317 | -1.67° C | 67% | 1022 hPa | 0 mm | - | - | - |
| 1778139016 | -1.67° C | 67% | 1022 hPa | 0 mm | - | - | - |
| 1778138717 | -1.67° C | 66% | 1022.1 hPa | 0 mm | - | - | - |
| 1778138417 | -2.22° C | 69% | 1022 hPa | 0 mm | - | - | - |
| 1778138117 | -2.22° C | 70% | 1022.2 hPa | 0 mm | - | - | - |
| 1778137817 | -2.78° C | 75% | 1021.7 hPa | 0 mm | - | - | - |
| 1778137516 | -3.33° C | 78% | 1021.6 hPa | 0 mm | - | - | - |
| 1778137217 | -3.33° C | 76% | 1021.6 hPa | 0 mm | - | - | - |
| 1778136917 | -2.22° C | 75% | 1022.1 hPa | 0 mm | - | - | - |
| 1778136616 | -2.22° C | 71% | 1021.9 hPa | 0 mm | - | - | - |
| 1778136317 | -2.22° C | 68% | 1021.7 hPa | 0 mm | - | - | - |
| 1778136016 | -2.22° C | 69% | 1021.9 hPa | 0 mm | - | - | - |
* Rain latest hour (hover to see other rain measurements)
** Current wind speed in m/s (hover to see current wind gust speed)